createdAt,value
2023-05-22T00:00:09.458Z,99725.28
2023-05-22T00:02:43.446Z,99724.44
2023-05-22T00:05:15.199Z,99718.34
2023-05-22T00:07:43.654Z,99720.50
2023-05-22T00:10:11.502Z,99720.22
2023-05-22T00:12:38.664Z,99719.13
2023-05-22T00:15:06.601Z,99705.81
2023-05-22T00:17:35.240Z,99706.34
2023-05-22T00:20:06.101Z,99704.19
2023-05-22T00:22:37.175Z,99707.81
2023-05-22T00:25:05.823Z,99700.97
2023-05-22T00:27:35.005Z,99699.94
2023-05-22T00:30:05.098Z,99701.47
2023-05-22T00:32:34.333Z,99703.53
2023-05-22T00:35:02.063Z,99704.81
2023-05-22T00:37:30.316Z,99712.06
2023-05-22T00:39:57.699Z,99706.50
2023-05-22T00:42:25.263Z,99704.25
2023-05-22T00:44:54.779Z,99705.97
2023-05-22T00:47:24.125Z,99707.19
2023-05-22T00:49:58.016Z,99703.41
2023-05-22T00:52:25.607Z,99699.19
2023-05-22T00:54:54.453Z,99694.63
2023-05-22T00:57:28.277Z,99695.00
2023-05-22T00:59:56.971Z,99696.19
2023-05-22T01:02:26.502Z,99703.41
2023-05-22T01:04:57.154Z,99690.00
2023-05-22T01:07:25.417Z,99694.16
2023-05-22T01:09:53.060Z,99690.00
2023-05-22T01:12:32.156Z,99693.53
2023-05-22T01:15:03.131Z,99694.91
2023-05-22T01:17:55.647Z,99691.38
2023-05-22T01:20:33.739Z,99685.38
2023-05-22T01:23:20.297Z,99699.47
2023-05-22T01:26:18.637Z,99692.94
2023-05-22T01:29:14.707Z,99693.50
2023-05-22T01:31:46.080Z,99691.47
2023-05-22T01:34:16.708Z,99689.75
2023-05-22T01:36:46.477Z,99697.91
2023-05-22T01:39:15.709Z,99698.75
2023-05-22T01:41:43.895Z,99697.91
2023-05-22T01:44:11.268Z,99704.50
2023-05-22T01:46:44.628Z,99701.91
2023-05-22T01:49:12.379Z,99709.03
2023-05-22T01:52:24.463Z,99707.31
2023-05-22T01:55:03.957Z,99701.56
2023-05-22T01:57:59.885Z,99705.91
2023-05-22T02:00:29.446Z,99695.97
2023-05-22T02:03:18.074Z,99707.47
2023-05-22T02:05:50.269Z,99697.00
2023-05-22T02:08:20.609Z,99696.81
2023-05-22T02:10:50.445Z,99700.41
2023-05-22T02:13:24.421Z,99697.22
2023-05-22T02:15:52.921Z,99699.34
2023-05-22T02:18:20.344Z,99703.16
2023-05-22T02:20:47.877Z,99703.56
2023-05-22T02:23:16.536Z,99697.84
2023-05-22T02:25:45.948Z,99703.31
2023-05-22T02:28:15.528Z,99697.72
2023-05-22T02:30:42.746Z,99696.16
2023-05-22T02:33:10.211Z,99691.00
2023-05-22T02:35:37.739Z,99695.22
2023-05-22T02:38:05.334Z,99685.91
2023-05-22T02:40:33.675Z,99686.31
2023-05-22T02:43:01.018Z,99698.50
2023-05-22T02:45:29.793Z,99689.88
2023-05-22T02:47:58.717Z,99693.81
2023-05-22T02:50:26.021Z,99692.78
2023-05-22T02:52:59.653Z,99695.53
2023-05-22T02:55:27.055Z,99690.47
2023-05-22T02:57:54.483Z,99695.31
2023-05-22T03:00:23.347Z,99691.47
2023-05-22T03:02:51.721Z,99692.31
2023-05-22T03:05:20.099Z,99687.47
2023-05-22T03:07:48.734Z,99683.22
2023-05-22T03:10:16.724Z,99697.22
2023-05-22T03:12:44.933Z,99693.94
2023-05-22T03:15:12.662Z,99698.41
2023-05-22T03:17:39.896Z,99694.16
2023-05-22T03:20:17.341Z,99694.06
2023-05-22T03:22:46.216Z,99695.72
2023-05-22T03:25:13.585Z,99697.22
2023-05-22T03:27:41.557Z,99693.75
2023-05-22T03:30:10.283Z,99697.16
2023-05-22T03:32:38.159Z,99698.75
2023-05-22T03:35:06.477Z,99700.63
2023-05-22T03:37:34.861Z,99699.81
2023-05-22T03:40:02.692Z,99708.94
2023-05-22T03:42:30.854Z,99701.69
2023-05-22T03:45:00.394Z,99710.38
2023-05-22T03:47:30.031Z,99709.34
2023-05-22T03:49:57.428Z,99699.19
2023-05-22T03:52:25.096Z,99707.72
2023-05-22T03:54:54.418Z,99704.28
2023-05-22T03:57:22.824Z,99706.22
2023-05-22T03:59:50.300Z,99708.75
2023-05-22T04:02:17.862Z,99707.84
2023-05-22T04:04:47.703Z,99708.41
2023-05-22T04:07:15.467Z,99706.00
2023-05-22T04:09:42.657Z,99692.19
2023-05-22T04:12:12.214Z,99695.78
2023-05-22T04:14:39.631Z,99690.47
2023-05-22T04:17:12.274Z,99692.00
2023-05-22T04:19:39.750Z,99699.38
2023-05-22T04:22:07.238Z,99686.56
2023-05-22T04:24:34.588Z,99697.59
2023-05-22T04:27:03.223Z,99690.97
2023-05-22T04:29:31.514Z,99684.53
2023-05-22T04:32:00.641Z,99679.38
2023-05-22T04:34:28.947Z,99681.66
2023-05-22T04:36:56.682Z,99686.97
2023-05-22T04:39:26.609Z,99685.06
2023-05-22T04:42:06.077Z,99688.66
2023-05-22T04:44:34.752Z,99682.22
2023-05-22T04:47:03.958Z,99682.25
2023-05-22T04:49:32.438Z,99688.91
2023-05-22T04:52:05.010Z,99694.28
2023-05-22T04:54:34.551Z,99693.94
2023-05-22T04:57:03.496Z,99691.06
2023-05-22T04:59:33.762Z,99695.50
2023-05-22T05:02:01.744Z,99689.31
2023-05-22T05:04:29.007Z,99685.91
2023-05-22T05:06:57.943Z,99678.16
2023-05-22T05:09:26.064Z,99676.38
2023-05-22T05:11:53.619Z,99680.56
2023-05-22T05:14:21.721Z,99674.03
2023-05-22T05:16:49.254Z,99676.06
2023-05-22T05:19:21.733Z,99676.75
2023-05-22T05:21:52.752Z,99686.84
2023-05-22T05:24:20.344Z,99683.03
2023-05-22T05:26:47.779Z,99684.00
2023-05-22T05:29:16.191Z,99687.03
2023-05-22T05:31:43.683Z,99688.94
2023-05-22T05:34:11.377Z,99695.00
2023-05-22T05:36:38.575Z,99685.84
2023-05-22T05:39:06.069Z,99688.78
2023-05-22T05:41:33.607Z,99695.72
2023-05-22T05:44:01.778Z,99684.84
2023-05-22T05:46:29.096Z,99697.81
2023-05-22T05:48:56.396Z,99694.34
2023-05-22T05:51:23.997Z,99691.78
2023-05-22T05:53:51.499Z,99687.16
2023-05-22T05:56:18.786Z,99695.09
2023-05-22T05:58:46.209Z,99695.31
2023-05-22T06:01:13.623Z,99692.94
2023-05-22T06:03:46.907Z,99686.06
2023-05-22T06:06:14.406Z,99691.34
2023-05-22T06:08:47.898Z,99683.28
2023-05-22T06:11:15.258Z,99683.22
2023-05-22T06:13:43.718Z,99684.59
2023-05-22T06:16:11.285Z,99687.38
2023-05-22T06:18:38.837Z,99681.59
2023-05-22T06:21:07.786Z,99683.47
2023-05-22T06:23:36.232Z,99674.34
2023-05-22T06:26:03.685Z,99681.00
2023-05-22T06:28:31.086Z,99677.38
2023-05-22T06:30:58.672Z,99684.19
2023-05-22T06:33:27.011Z,99681.72
2023-05-22T06:35:54.437Z,99683.47
2023-05-22T06:38:22.231Z,99679.03
2023-05-22T06:40:50.022Z,99677.19
2023-05-22T06:43:17.301Z,99683.88
2023-05-22T06:45:45.151Z,99676.38
2023-05-22T06:48:13.101Z,99673.97
2023-05-22T06:50:40.501Z,99673.50
2023-05-22T06:53:09.384Z,99676.38
2023-05-22T06:55:36.631Z,99671.06
2023-05-22T06:58:04.192Z,99670.28
2023-05-22T07:00:32.115Z,99675.19
2023-05-22T07:02:59.757Z,99672.19
2023-05-22T07:05:27.064Z,99670.38
2023-05-22T07:07:54.621Z,99668.19
2023-05-22T07:10:22.008Z,99671.66
2023-05-22T07:13:01.786Z,99666.03
2023-05-22T07:15:35.997Z,99668.88
2023-05-22T07:18:05.677Z,99668.97
2023-05-22T07:20:34.292Z,99675.56
2023-05-22T07:23:01.805Z,99672.31
2023-05-22T07:25:29.476Z,99672.31
2023-05-22T07:27:58.736Z,99673.88
2023-05-22T07:30:26.290Z,99666.28
2023-05-22T07:32:56.835Z,99673.03
2023-05-22T07:35:24.194Z,99672.13
2023-05-22T07:37:51.648Z,99668.66
2023-05-22T07:40:19.132Z,99662.81
2023-05-22T07:42:46.484Z,99666.06
2023-05-22T07:45:14.557Z,99664.81
2023-05-22T07:47:42.998Z,99667.31
2023-05-22T07:50:11.773Z,99668.50
2023-05-22T07:52:39.729Z,99659.47
2023-05-22T07:55:08.249Z,99659.53
2023-05-22T07:57:36.581Z,99651.97
2023-05-22T08:00:14.157Z,99657.75
2023-05-22T08:02:42.050Z,99657.03
2023-05-22T08:05:10.500Z,99662.06
2023-05-22T08:07:39.143Z,99658.13
2023-05-22T08:10:16.136Z,99654.81
2023-05-22T08:12:44.413Z,99654.81
2023-05-22T08:15:12.664Z,99654.06
2023-05-22T08:17:40.234Z,99656.91
2023-05-22T08:20:09.629Z,99655.91
2023-05-22T08:22:39.795Z,99652.53
2023-05-22T08:25:11.729Z,99641.19
2023-05-22T08:27:40.550Z,99647.00
2023-05-22T08:30:08.623Z,99643.75
2023-05-22T08:32:36.119Z,99646.88
2023-05-22T08:35:03.696Z,99645.44
2023-05-22T08:37:32.098Z,99649.94
2023-05-22T08:39:59.655Z,99641.13
2023-05-22T08:42:27.095Z,99649.28
2023-05-22T08:45:07.529Z,99642.88
2023-05-22T08:47:43.006Z,99633.81
2023-05-22T08:50:11.714Z,99634.50
2023-05-22T08:52:55.047Z,99632.78
2023-05-22T08:55:22.804Z,99626.97
2023-05-22T08:57:50.676Z,99632.47
2023-05-22T09:00:19.919Z,99624.47
2023-05-22T09:02:48.328Z,99627.81
2023-05-22T09:05:19.906Z,99624.06
2023-05-22T09:07:49.205Z,99627.63
2023-05-22T09:10:16.589Z,99624.72
2023-05-22T09:13:08.152Z,99622.75
2023-05-22T09:15:38.866Z,99629.88
2023-05-22T09:18:06.925Z,99615.56
2023-05-22T09:20:39.540Z,99614.63
2023-05-22T09:23:20.106Z,99614.31
2023-05-22T09:25:48.566Z,99611.53
2023-05-22T09:28:16.159Z,99602.78
2023-05-22T09:30:49.928Z,99613.56
2023-05-22T09:33:18.242Z,99613.69
2023-05-22T09:35:50.070Z,99610.00
2023-05-22T09:38:22.384Z,99610.66
2023-05-22T09:40:54.789Z,99597.16
2023-05-22T09:43:26.062Z,99605.41
2023-05-22T09:46:02.827Z,99600.47
2023-05-22T09:48:38.709Z,99594.84
2023-05-22T09:51:07.640Z,99591.84
2023-05-22T09:53:36.283Z,99598.47
2023-05-22T09:56:10.381Z,99592.03
2023-05-22T09:58:42.066Z,99599.78
2023-05-22T10:01:14.257Z,99598.47
2023-05-22T10:03:45.864Z,99586.16
2023-05-22T10:06:16.710Z,99585.84
2023-05-22T10:08:51.142Z,99586.22
2023-05-22T10:11:18.997Z,99585.19
2023-05-22T10:13:48.239Z,99584.13
2023-05-22T10:16:17.089Z,99581.63
2023-05-22T10:18:47.204Z,99589.59
2023-05-22T10:21:16.945Z,99590.28
2023-05-22T10:23:44.782Z,99580.09
2023-05-22T10:26:12.781Z,99582.25
2023-05-22T10:28:47.638Z,99571.66
2023-05-22T10:32:08.707Z,99584.38
2023-05-22T10:34:51.073Z,99572.72
2023-05-22T10:37:31.907Z,99577.13
2023-05-22T10:40:10.108Z,99573.50
2023-05-22T10:42:40.364Z,99574.31
2023-05-22T10:45:09.177Z,99572.78
2023-05-22T10:47:37.228Z,99567.91
2023-05-22T10:50:11.888Z,99579.91
2023-05-22T10:52:41.272Z,99564.53
2023-05-22T10:55:10.152Z,99574.56
2023-05-22T10:57:42.561Z,99569.81
2023-05-22T11:00:15.962Z,99560.31
2023-05-22T11:02:45.137Z,99572.03
2023-05-22T11:05:34.795Z,99562.78
2023-05-22T11:08:27.882Z,99561.81
2023-05-22T11:10:59.378Z,99556.84
2023-05-22T11:13:34.831Z,99558.25
2023-05-22T11:16:06.600Z,99550.41
2023-05-22T11:18:35.163Z,99550.44
2023-05-22T11:21:02.696Z,99544.56
2023-05-22T11:23:34.197Z,99541.28
2023-05-22T11:26:20.719Z,99548.00
2023-05-22T11:28:54.675Z,99542.63
2023-05-22T11:31:23.679Z,99538.97
2023-05-22T11:33:51.296Z,99546.44
2023-05-22T11:36:19.067Z,99539.41
2023-05-22T11:38:47.525Z,99535.94
2023-05-22T11:41:16.117Z,99527.94
2023-05-22T11:43:43.570Z,99534.69
2023-05-22T11:46:12.012Z,99535.13
2023-05-22T11:48:43.240Z,99532.97
2023-05-22T11:51:11.182Z,99537.31
2023-05-22T11:53:38.994Z,99521.97
2023-05-22T11:56:08.045Z,99514.22
2023-05-22T11:58:41.389Z,99514.91
2023-05-22T12:01:09.078Z,99522.88
2023-05-22T12:03:36.449Z,99522.88
2023-05-22T12:06:05.725Z,99529.59
2023-05-22T12:08:34.971Z,99520.84
2023-05-22T12:11:12.646Z,99514.63
2023-05-22T12:13:42.092Z,99511.69
2023-05-22T12:16:20.442Z,99522.63
2023-05-22T12:18:56.059Z,99513.00
2023-05-22T12:21:23.423Z,99511.91
2023-05-22T12:23:52.974Z,99518.59
2023-05-22T12:26:21.945Z,99512.25
2023-05-22T12:28:54.137Z,99512.41
2023-05-22T12:31:23.089Z,99507.72
2023-05-22T12:33:53.870Z,99503.25
2023-05-22T12:36:22.058Z,99506.44
2023-05-22T12:38:50.368Z,99504.03
2023-05-22T12:41:17.802Z,99511.94
2023-05-22T12:43:44.915Z,99499.19
2023-05-22T12:46:12.246Z,99503.28
2023-05-22T12:48:39.701Z,99491.97
2023-05-22T12:51:09.600Z,99485.75
2023-05-22T12:53:37.217Z,99491.00
2023-05-22T12:56:06.118Z,99484.63
2023-05-22T12:58:39.302Z,99493.16
2023-05-22T13:01:06.825Z,99485.97
2023-05-22T13:03:35.423Z,99491.84
2023-05-22T13:06:03.763Z,99489.47
2023-05-22T13:08:31.380Z,99494.28
2023-05-22T13:11:05.150Z,99495.72
2023-05-22T13:13:33.085Z,99495.56
2023-05-22T13:16:01.029Z,99487.56
2023-05-22T13:18:28.672Z,99489.59
2023-05-22T13:21:00.555Z,99492.31
2023-05-22T13:23:28.237Z,99487.47
2023-05-22T13:25:55.644Z,99482.75
2023-05-22T13:28:24.177Z,99483.44
2023-05-22T13:30:51.655Z,99474.94
2023-05-22T13:33:21.463Z,99463.19
2023-05-22T13:35:49.051Z,99472.69
2023-05-22T13:38:16.549Z,99469.81
2023-05-22T13:40:45.711Z,99463.50
2023-05-22T13:43:14.790Z,99467.66
2023-05-22T13:45:44.154Z,99468.31
2023-05-22T13:48:12.083Z,99469.81
2023-05-22T13:50:39.881Z,99464.47
2023-05-22T13:53:08.187Z,99460.09
2023-05-22T13:55:36.454Z,99459.03
2023-05-22T13:58:05.655Z,99459.91
2023-05-22T14:00:33.199Z,99453.56
2023-05-22T14:03:01.086Z,99450.94
2023-05-22T14:05:28.746Z,99451.84
2023-05-22T14:07:57.186Z,99447.59
2023-05-22T14:10:34.919Z,99446.75
2023-05-22T14:13:03.876Z,99446.47
2023-05-22T14:15:32.258Z,99449.03
2023-05-22T14:17:59.782Z,99446.19
2023-05-22T14:20:30.480Z,99436.72
2023-05-22T14:22:58.360Z,99427.75
2023-05-22T14:25:26.654Z,99426.59
2023-05-22T14:27:54.173Z,99432.31
2023-05-22T14:30:21.740Z,99426.25
2023-05-22T14:32:49.139Z,99421.59
2023-05-22T14:35:17.031Z,99420.94
2023-05-22T14:37:45.077Z,99417.38
2023-05-22T14:40:12.545Z,99417.75
2023-05-22T14:42:41.017Z,99419.44
2023-05-22T14:45:09.716Z,99420.72
2023-05-22T14:47:37.025Z,99412.72
2023-05-22T14:50:18.018Z,99411.50
2023-05-22T14:52:46.059Z,99410.00
2023-05-22T14:55:13.424Z,99406.25
2023-05-22T14:57:40.875Z,99410.66
2023-05-22T15:00:11.248Z,99408.22
2023-05-22T15:02:38.560Z,99404.31
2023-05-22T15:05:07.573Z,99408.22
2023-05-22T15:10:08.437Z,99405.88
2023-05-22T15:12:35.997Z,99408.25
2023-05-22T15:15:04.864Z,99403.25
2023-05-22T15:17:32.545Z,99402.38
2023-05-22T15:20:00.186Z,99398.31
2023-05-22T15:22:27.644Z,99394.16
2023-05-22T15:25:12.012Z,99394.63
2023-05-22T15:27:40.317Z,99389.78
2023-05-22T15:30:12.501Z,99385.81
2023-05-22T15:32:39.951Z,99383.03
2023-05-22T15:35:08.142Z,99381.53
2023-05-22T15:37:36.799Z,99379.03
2023-05-22T15:40:09.958Z,99373.81
2023-05-22T15:42:38.906Z,99376.03
2023-05-22T15:45:06.819Z,99374.75
2023-05-22T15:47:35.597Z,99366.88
2023-05-22T15:50:09.731Z,99366.91
2023-05-22T15:52:38.256Z,99369.22
2023-05-22T15:55:05.748Z,99365.53
2023-05-22T15:57:39.105Z,99365.88
2023-05-22T16:00:08.942Z,99364.34
2023-05-22T16:02:46.458Z,99356.97
2023-05-22T16:05:20.181Z,99355.97
2023-05-22T16:07:49.594Z,99357.03
2023-05-22T16:10:18.500Z,99354.88
2023-05-22T16:12:46.574Z,99353.91
2023-05-22T16:15:14.138Z,99349.97
2023-05-22T16:17:42.673Z,99344.41
2023-05-22T16:20:12.242Z,99352.03
2023-05-22T16:22:48.277Z,99343.16
2023-05-22T16:25:18.041Z,99354.16
2023-05-22T16:27:46.310Z,99354.13
2023-05-22T16:30:17.099Z,99353.25
2023-05-22T16:32:48.839Z,99351.56
2023-05-22T16:35:17.066Z,99356.22
2023-05-22T16:37:46.329Z,99354.16
2023-05-22T16:40:13.886Z,99347.63
2023-05-22T16:42:42.468Z,99356.44
2023-05-22T16:45:10.198Z,99353.28
2023-05-22T16:47:37.922Z,99352.84
2023-05-22T16:50:05.905Z,99351.00
2023-05-22T16:52:34.389Z,99355.53
2023-05-22T16:55:02.079Z,99352.84
2023-05-22T16:57:35.357Z,99360.94
2023-05-22T17:00:04.153Z,99373.41
2023-05-22T17:02:33.790Z,99370.25
2023-05-22T17:05:02.776Z,99367.59
2023-05-22T17:07:32.058Z,99374.38
2023-05-22T17:09:59.409Z,99367.75
2023-05-22T17:12:26.904Z,99367.34
2023-05-22T17:14:54.345Z,99368.38
2023-05-22T17:17:21.782Z,99375.97
2023-05-22T17:19:49.218Z,99370.22
2023-05-22T17:22:16.742Z,99367.53
2023-05-22T17:24:44.230Z,99368.56
2023-05-22T17:27:12.788Z,99365.19
2023-05-22T17:29:46.796Z,99376.00
2023-05-22T17:32:14.284Z,99370.59
2023-05-22T17:34:41.661Z,99365.50
2023-05-22T17:37:10.626Z,99376.69
2023-05-22T17:39:39.230Z,99371.44
2023-05-22T17:42:06.835Z,99369.06
2023-05-22T17:44:34.157Z,99366.84
2023-05-22T17:47:01.856Z,99376.31
2023-05-22T17:49:30.253Z,99370.06
2023-05-22T17:51:58.624Z,99370.53
2023-05-22T17:54:26.058Z,99373.81
2023-05-22T17:56:55.341Z,99365.34
2023-05-22T17:59:22.504Z,99367.28
2023-05-22T18:01:50.117Z,99366.59
2023-05-22T18:04:17.575Z,99366.16
2023-05-22T18:06:50.613Z,99362.03
2023-05-22T18:09:18.083Z,99367.84
2023-05-22T18:11:45.536Z,99359.94
2023-05-22T18:14:14.020Z,99367.88
2023-05-22T18:16:41.510Z,99360.47
2023-05-22T18:19:08.963Z,99358.63
2023-05-22T18:21:36.536Z,99356.91
2023-05-22T18:24:06.464Z,99367.91
2023-05-22T18:26:33.919Z,99364.75
2023-05-22T18:29:01.454Z,99358.56
2023-05-22T18:31:28.926Z,99361.06
2023-05-22T18:33:56.310Z,99363.56
2023-05-22T18:36:23.649Z,99362.66
2023-05-22T18:38:51.003Z,99363.81
2023-05-22T18:41:19.332Z,99365.16
2023-05-22T18:43:46.535Z,99363.81
2023-05-22T18:46:14.046Z,99367.19
2023-05-22T18:48:42.421Z,99370.03
2023-05-22T18:51:09.888Z,99368.94
2023-05-22T18:53:37.278Z,99368.22
2023-05-22T18:56:04.920Z,99365.84
2023-05-22T18:58:32.238Z,99367.97
2023-05-22T19:01:02.467Z,99369.91
2023-05-22T19:03:30.332Z,99379.91
2023-05-22T19:05:57.769Z,99378.19
2023-05-22T19:08:38.507Z,99374.47
2023-05-22T19:11:08.026Z,99379.56
2023-05-22T19:13:36.491Z,99389.16
2023-05-22T19:16:04.917Z,99387.03
2023-05-22T19:18:32.746Z,99384.31
2023-05-22T19:21:00.432Z,99387.97
2023-05-22T19:23:29.725Z,99391.59
2023-05-22T19:25:58.605Z,99388.47
2023-05-22T19:28:26.705Z,99394.34
2023-05-22T19:30:57.927Z,99395.41
2023-05-22T19:33:27.949Z,99397.47
2023-05-22T19:35:56.609Z,99397.47
2023-05-22T19:38:31.422Z,99401.66
2023-05-22T19:40:58.685Z,99397.66
2023-05-22T19:43:26.038Z,99391.13
2023-05-22T19:45:54.640Z,99398.84
2023-05-22T19:48:22.079Z,99397.78
2023-05-22T19:50:49.281Z,99396.28
2023-05-22T19:53:16.833Z,99392.03
2023-05-22T19:55:44.160Z,99398.28
2023-05-22T19:58:12.062Z,99400.75
2023-05-22T20:00:41.553Z,99393.94
2023-05-22T20:03:12.111Z,99393.38
2023-05-22T20:05:39.992Z,99382.78
2023-05-22T20:08:07.972Z,99388.53
2023-05-22T20:10:35.344Z,99386.47
2023-05-22T20:13:02.901Z,99381.09
2023-05-22T20:15:33.132Z,99392.16
2023-05-22T20:18:02.941Z,99388.16
2023-05-22T20:20:30.497Z,99380.38
2023-05-22T20:22:59.361Z,99384.50
2023-05-22T20:25:27.003Z,99387.41
2023-05-22T20:27:56.327Z,99374.84
2023-05-22T20:30:23.970Z,99379.94
2023-05-22T20:32:52.326Z,99376.84
2023-05-22T20:35:20.501Z,99371.28
2023-05-22T20:37:55.388Z,99376.66
2023-05-22T20:40:26.792Z,99379.69
2023-05-22T20:42:53.856Z,99373.34
2023-05-22T20:45:22.606Z,99372.00
2023-05-22T20:47:50.229Z,99360.47
2023-05-22T20:50:18.781Z,99369.81
2023-05-22T20:52:46.317Z,99376.09
2023-05-22T20:55:13.661Z,99365.19
2023-05-22T20:57:42.113Z,99363.94
2023-05-22T21:00:11.450Z,99363.72
2023-05-22T21:02:42.218Z,99362.84
2023-05-22T21:05:10.723Z,99361.38
2023-05-22T21:07:38.155Z,99368.44
2023-05-22T21:10:23.558Z,99366.50
2023-05-22T21:12:52.039Z,99362.38
2023-05-22T21:15:19.501Z,99364.91
2023-05-22T21:17:48.001Z,99364.06
2023-05-22T21:20:15.448Z,99369.56
2023-05-22T21:22:42.842Z,99369.28
2023-05-22T21:25:11.475Z,99374.38
2023-05-22T21:27:38.908Z,99382.63
2023-05-22T21:30:06.754Z,99376.75
2023-05-22T21:32:34.377Z,99384.13
2023-05-22T21:35:05.061Z,99386.78
2023-05-22T21:37:34.483Z,99381.34
2023-05-22T21:40:03.045Z,99386.13
2023-05-22T21:42:44.543Z,99382.81
2023-05-22T21:45:13.300Z,99383.75
2023-05-22T21:47:40.898Z,99385.25
2023-05-22T21:50:09.518Z,99371.31
2023-05-22T21:52:36.830Z,99377.00
2023-05-22T21:55:06.213Z,99373.22
2023-05-22T21:57:33.633Z,99380.69
2023-05-22T22:00:01.121Z,99387.22
2023-05-22T22:02:29.652Z,99380.16
2023-05-22T22:04:57.034Z,99381.69
2023-05-22T22:07:24.543Z,99371.25
2023-05-22T22:09:52.131Z,99370.38
2023-05-22T22:12:21.727Z,99370.06
2023-05-22T22:14:50.079Z,99365.97
2023-05-22T22:17:23.985Z,99357.78
2023-05-22T22:19:57.267Z,99362.25
2023-05-22T22:22:31.248Z,99358.19
2023-05-22T22:24:58.749Z,99352.69
2023-05-22T22:27:27.285Z,99362.66
2023-05-22T22:29:54.671Z,99362.41
2023-05-22T22:32:23.072Z,99367.22
2023-05-22T22:34:54.049Z,99363.66
2023-05-22T22:37:22.727Z,99363.28
2023-05-22T22:39:50.070Z,99360.66
2023-05-22T22:42:17.629Z,99360.75
2023-05-22T22:44:45.117Z,99356.47
2023-05-22T22:47:12.448Z,99357.13
2023-05-22T22:49:39.955Z,99356.47
2023-05-22T22:52:09.423Z,99360.28
2023-05-22T22:54:37.952Z,99349.63
2023-05-22T22:57:11.528Z,99354.84
2023-05-22T22:59:39.022Z,99345.34
2023-05-22T23:02:06.481Z,99347.34
2023-05-22T23:04:34.169Z,99347.53
2023-05-22T23:07:03.230Z,99350.00
2023-05-22T23:09:30.395Z,99340.47
2023-05-22T23:11:57.848Z,99345.38
2023-05-22T23:14:31.118Z,99345.59
2023-05-22T23:16:58.469Z,99347.63
2023-05-22T23:19:26.138Z,99347.53
2023-05-22T23:21:54.396Z,99341.38
2023-05-22T23:24:24.058Z,99347.84
2023-05-22T23:26:53.114Z,99335.28
2023-05-22T23:29:20.750Z,99337.22
2023-05-22T23:31:50.749Z,99331.50
2023-05-22T23:34:20.776Z,99325.84
2023-05-22T23:36:52.962Z,99328.09
2023-05-22T23:39:22.550Z,99326.50
2023-05-22T23:41:50.060Z,99319.94
2023-05-22T23:44:18.472Z,99317.94
2023-05-22T23:46:47.949Z,99322.13
2023-05-22T23:49:16.162Z,99319.06
2023-05-22T23:51:43.487Z,99315.28
2023-05-22T23:54:11.600Z,99312.34
2023-05-22T23:56:39.571Z,99311.81
2023-05-22T23:59:07.169Z,99307.13
